Time;durP1;ratioP1;P1;durP2;ratioP2;P2;SDS_P1;SDS_P2;PMS_P1;PMS_P2;Temp;Humidity;BMP_temperature;BMP_pressure;BME280_temperature;BME280_humidity;BME280_pressure;Samples;Min_cycle;Max_cycle;Signal;HPM_P1;HPM_P2
2022/07/07 00:00:29;;;;;;;8.57;6.10;;;17.10;99.90;;;;;;5070232;28;20063;-60
2022/07/07 00:02:54;;;;;;;11.18;6.70;;;17.20;99.90;;;;;;5068314;28;20483;-59
2022/07/07 00:05:21;;;;;;;11.02;5.80;;;17.10;99.90;;;;;;5066248;28;20052;-60
2022/07/07 00:07:46;;;;;;;8.10;5.60;;;17.10;99.90;;;;;;5069570;28;20040;-59
2022/07/07 00:10:12;;;;;;;9.45;5.60;;;17.20;99.90;;;;;;5068760;28;20737;-59
2022/07/07 00:12:38;;;;;;;9.52;6.00;;;17.20;99.90;;;;;;5068755;28;20483;-61
2022/07/07 00:15:05;;;;;;;11.07;5.20;;;17.20;99.90;;;;;;5066452;28;20123;-59
2022/07/07 00:17:31;;;;;;;16.17;5.88;;;17.10;99.90;;;;;;5068234;28;20452;-60
2022/07/07 00:19:57;;;;;;;10.00;5.40;;;17.10;99.90;;;;;;5066109;28;20040;-60
2022/07/07 00:22:23;;;;;;;9.38;5.28;;;17.20;99.90;;;;;;5067369;28;20577;-60
2022/07/07 00:24:49;;;;;;;11.50;5.55;;;17.20;99.90;;;;;;5068712;28;20044;-60
2022/07/07 00:27:14;;;;;;;8.40;5.00;;;17.20;99.90;;;;;;5070173;28;20072;-60
2022/07/07 00:29:43;;;;;;;7.30;4.55;;;17.10;99.90;;;;;;5069700;28;20049;-62
2022/07/07 00:32:10;;;;;;;12.55;5.43;;;17.20;99.90;;;;;;5069814;28;20048;-60
2022/07/07 00:34:36;;;;;;;7.55;4.53;;;17.20;99.90;;;;;;5068857;28;20098;-61
2022/07/07 00:37:01;;;;;;;11.52;4.90;;;17.20;99.90;;;;;;5069034;28;20282;-61
2022/07/07 00:39:27;;;;;;;10.45;4.50;;;17.20;99.90;;;;;;5051504;28;20056;-61
2022/07/07 00:41:53;;;;;;;8.65;4.72;;;17.20;99.90;;;;;;5068981;28;20056;-61
2022/07/07 00:44:19;;;;;;;9.02;5.25;;;17.10;99.90;;;;;;5067167;28;20043;-61
2022/07/07 00:46:47;;;;;;;9.27;4.80;;;17.00;99.90;;;;;;5066027;28;20044;-64
2022/07/07 00:49:15;;;;;;;8.18;4.15;;;17.00;99.90;;;;;;5051106;28;20091;-61
2022/07/07 00:51:42;;;;;;;8.50;4.00;;;16.90;99.90;;;;;;5068572;28;20744;-61
2022/07/07 00:54:09;;;;;;;8.50;3.55;;;16.80;99.90;;;;;;5068207;28;20048;-62
2022/07/07 00:56:35;;;;;;;5.75;2.97;;;16.80;99.90;;;;;;5066719;28;20045;-64
2022/07/07 00:59:06;;;;;;;7.20;3.15;;;16.70;99.90;;;;;;5068593;28;20520;-59
2022/07/07 01:01:36;;;;;;;7.40;3.05;;;16.70;99.90;;;;;;5068151;28;20489;-59
2022/07/07 01:04:02;;;;;;;7.50;3.20;;;16.60;99.90;;;;;;5067153;28;22052;-59
2022/07/07 01:06:30;;;;;;;8.55;3.10;;;16.60;99.90;;;;;;5069370;28;20056;-59
2022/07/07 01:08:56;;;;;;;6.43;3.35;;;16.50;99.90;;;;;;5067659;28;20449;-59
2022/07/07 01:11:22;;;;;;;6.97;3.10;;;16.50;99.90;;;;;;5069310;28;20052;-59
2022/07/07 01:13:47;;;;;;;7.68;3.33;;;16.50;99.90;;;;;;5030785;28;20094;-63
2022/07/07 01:16:13;;;;;;;8.65;3.25;;;16.50;99.90;;;;;;5065988;28;20079;-60
2022/07/07 01:18:39;;;;;;;6.60;3.10;;;16.40;99.90;;;;;;5069013;28;20058;-59
2022/07/07 01:21:06;;;;;;;9.38;3.55;;;16.40;99.90;;;;;;5067429;28;20044;-60
2022/07/07 01:23:32;;;;;;;7.57;3.30;;;16.40;99.90;;;;;;5068047;28;20528;-60
2022/07/07 01:25:57;;;;;;;10.98;3.55;;;16.40;99.90;;;;;;5066775;28;20080;-61
2022/07/07 01:28:23;;;;;;;6.78;4.05;;;16.40;99.90;;;;;;5069232;28;20052;-61
2022/07/07 01:30:49;;;;;;;6.15;3.70;;;16.40;99.90;;;;;;5068703;28;20044;-63
2022/07/07 01:33:18;;;;;;;10.05;4.00;;;16.40;99.90;;;;;;5070928;28;20115;-61
2022/07/07 01:35:43;;;;;;;7.78;3.55;;;16.40;99.90;;;;;;5072109;28;20044;-60
2022/07/07 01:38:09;;;;;;;9.90;4.07;;;16.40;99.90;;;;;;5072285;28;20512;-60
2022/07/07 01:40:35;;;;;;;9.75;3.78;;;16.30;99.90;;;;;;5071662;28;20044;-61
2022/07/07 01:43:01;;;;;;;7.93;4.00;;;16.40;99.90;;;;;;5070770;28;20063;-60
2022/07/07 01:45:26;;;;;;;8.55;3.97;;;16.40;99.90;;;;;;5068872;28;20053;-60
2022/07/07 01:47:52;;;;;;;11.35;4.18;;;16.40;99.90;;;;;;5071867;28;20114;-63
2022/07/07 01:50:18;;;;;;;8.65;4.10;;;16.40;99.90;;;;;;5071392;28;20040;-60
2022/07/07 01:52:44;;;;;;;9.38;3.58;;;16.40;99.90;;;;;;5069039;28;20083;-60
2022/07/07 01:55:09;;;;;;;8.68;3.78;;;16.40;99.90;;;;;;5071846;28;20048;-60
2022/07/07 01:57:35;;;;;;;11.60;4.18;;;16.40;99.90;;;;;;5066462;28;20060;-60
2022/07/07 02:00:01;;;;;;;13.70;3.88;;;16.40;99.90;;;;;;5064328;28;20079;-60
2022/07/07 02:02:27;;;;;;;11.85;4.50;;;16.40;99.90;;;;;;5066989;28;20044;-60
2022/07/07 02:04:52;;;;;;;12.10;4.43;;;16.40;99.90;;;;;;5069186;28;20048;-63
2022/07/07 02:07:18;;;;;;;11.43;4.18;;;16.40;99.90;;;;;;5069864;28;20040;-60
2022/07/07 02:09:44;;;;;;;12.15;4.38;;;16.40;99.90;;;;;;5071842;28;20048;-60
2022/07/07 02:12:09;;;;;;;11.90;4.15;;;16.40;99.90;;;;;;5071281;28;20490;-61
2022/07/07 02:14:37;;;;;;;9.45;3.70;;;16.40;99.90;;;;;;5069093;28;20064;-60
2022/07/07 02:17:03;;;;;;;12.80;3.83;;;16.40;99.90;;;;;;5067418;28;20051;-60
2022/07/07 02:19:29;;;;;;;11.32;3.65;;;16.40;99.90;;;;;;5070593;28;20052;-60
2022/07/07 02:21:54;;;;;;;6.25;3.17;;;16.40;99.90;;;;;;5072344;28;20048;-60
2022/07/07 02:24:20;;;;;;;8.93;3.30;;;16.40;99.90;;;;;;5071079;28;20044;-60
2022/07/07 02:26:46;;;;;;;12.68;3.80;;;16.40;99.90;;;;;;5071682;28;20036;-60
2022/07/07 02:29:12;;;;;;;10.70;2.92;;;16.40;99.90;;;;;;5071526;28;20052;-60
2022/07/07 02:31:38;;;;;;;9.75;3.15;;;16.30;99.90;;;;;;5069513;28;20053;-60
2022/07/07 02:34:03;;;;;;;9.23;3.70;;;16.30;99.90;;;;;;5070711;28;20044;-60
2022/07/07 02:36:29;;;;;;;13.73;3.67;;;16.30;99.90;;;;;;5070264;28;20072;-61
2022/07/07 02:38:55;;;;;;;11.20;3.58;;;16.30;99.90;;;;;;5069883;28;20059;-60
2022/07/07 02:41:21;;;;;;;13.68;3.38;;;16.30;99.90;;;;;;5071073;28;20048;-60
2022/07/07 02:43:47;;;;;;;12.27;3.42;;;16.40;99.90;;;;;;5067213;28;20513;-59
2022/07/07 02:46:12;;;;;;;13.27;3.83;;;16.40;99.90;;;;;;5071229;28;20047;-60
2022/07/07 02:48:38;;;;;;;11.50;3.35;;;16.40;99.90;;;;;;5071281;28;20036;-60
2022/07/07 02:51:04;;;;;;;10.70;3.08;;;16.40;99.90;;;;;;5069545;28;20052;-60
2022/07/07 02:53:30;;;;;;;15.35;2.95;;;16.40;99.90;;;;;;5069623;28;20119;-60
2022/07/07 02:55:55;;;;;;;9.98;2.90;;;16.40;99.90;;;;;;5069622;28;20124;-60
2022/07/07 02:58:23;;;;;;;11.00;2.85;;;16.30;99.90;;;;;;5065785;28;20331;-59
2022/07/07 03:00:49;;;;;;;14.82;3.30;;;16.30;99.90;;;;;;5060540;28;20071;-63
2022/07/07 03:03:15;;;;;;;11.57;2.75;;;16.30;99.90;;;;;;5064737;28;20053;-59
2022/07/07 03:05:41;;;;;;;8.07;2.80;;;16.40;99.90;;;;;;5061668;28;20044;-59
2022/07/07 03:08:07;;;;;;;8.95;2.92;;;16.30;99.90;;;;;;5067044;28;20040;-59
2022/07/07 03:10:33;;;;;;;10.98;3.08;;;16.30;99.90;;;;;;5070784;28;20044;-60
2022/07/07 03:12:59;;;;;;;12.25;3.10;;;16.30;99.90;;;;;;5066391;28;20055;-60
2022/07/07 03:15:24;;;;;;;13.63;3.45;;;16.30;99.90;;;;;;5068271;28;20048;-61
2022/07/07 03:17:52;;;;;;;10.95;2.78;;;16.40;99.90;;;;;;5053866;28;20033;-60
2022/07/07 03:20:18;;;;;;;9.05;3.00;;;16.30;99.90;;;;;;5059177;28;20056;-61
2022/07/07 03:22:44;;;;;;;6.47;2.50;;;16.40;99.90;;;;;;5058052;28;20056;-60
2022/07/07 03:25:11;;;;;;;15.82;3.35;;;16.30;99.90;;;;;;5050237;28;20101;-60
2022/07/07 03:27:37;;;;;;;8.60;2.30;;;16.30;99.90;;;;;;5057633;28;20241;-60
2022/07/07 03:30:04;;;;;;;10.75;2.42;;;16.20;99.90;;;;;;5053095;28;20103;-59
2022/07/07 03:32:31;;;;;;;9.68;2.05;;;16.10;99.90;;;;;;5060804;28;20044;-63
2022/07/07 03:34:57;;;;;;;13.23;2.50;;;16.10;99.90;;;;;;5062895;28;20079;-59
2022/07/07 03:37:24;;;;;;;7.78;2.15;;;16.00;99.90;;;;;;5058999;28;20126;-61
2022/07/07 03:39:49;;;;;;;10.35;2.30;;;16.00;99.90;;;;;;5062679;28;20791;-60
2022/07/07 03:42:15;;;;;;;13.07;2.45;;;16.00;99.90;;;;;;5051210;28;20101;-60
2022/07/07 03:44:41;;;;;;;13.13;2.60;;;16.00;99.90;;;;;;5069910;28;20044;-61
2022/07/07 03:47:06;;;;;;;12.23;2.10;;;15.90;99.90;;;;;;5070188;28;20410;-63
2022/07/07 03:49:32;;;;;;;11.48;2.22;;;15.90;99.90;;;;;;5068830;28;20432;-60
2022/07/07 03:51:58;;;;;;;8.05;2.05;;;15.90;99.90;;;;;;5069005;28;20060;-59
2022/07/07 03:54:24;;;;;;;7.72;1.50;;;15.90;99.90;;;;;;5068908;28;20500;-59
2022/07/07 03:56:50;;;;;;;4.20;1.40;;;15.80;99.90;;;;;;5068295;28;20554;-59
2022/07/07 03:59:15;;;;;;;6.78;1.58;;;15.80;99.90;;;;;;5068411;28;20119;-60
2022/07/07 04:01:47;;;;;;;6.28;1.30;;;15.80;99.90;;;;;;5067990;28;20083;-60
2022/07/07 04:04:14;;;;;;;6.15;1.77;;;15.70;99.90;;;;;;5069088;28;20109;-60
2022/07/07 04:06:41;;;;;;;6.03;1.80;;;15.80;99.90;;;;;;5066323;28;20494;-59
2022/07/07 04:09:07;;;;;;;8.18;2.25;;;15.80;99.90;;;;;;5069319;28;20113;-60
2022/07/07 04:11:32;;;;;;;10.15;2.33;;;15.70;99.90;;;;;;5066384;28;20044;-60
2022/07/07 04:13:58;;;;;;;11.20;2.08;;;15.70;99.90;;;;;;5067990;28;20052;-60
2022/07/07 04:16:24;;;;;;;6.40;1.90;;;15.70;99.90;;;;;;5069452;28;20036;-60
2022/07/07 04:18:50;;;;;;;7.38;1.67;;;15.60;99.90;;;;;;5069957;28;20122;-60
2022/07/07 04:21:15;;;;;;;9.50;1.90;;;15.50;99.90;;;;;;5049829;28;20076;-60
2022/07/07 04:23:41;;;;;;;8.30;2.15;;;15.50;99.90;;;;;;5069533;28;20047;-60
2022/07/07 04:26:07;;;;;;;7.30;1.75;;;15.50;99.90;;;;;;5069398;28;20374;-60
2022/07/07 04:28:32;;;;;;;9.80;2.60;;;15.50;99.90;;;;;;5069493;28;20033;-61
2022/07/07 04:30:58;;;;;;;10.25;2.53;;;15.50;99.90;;;;;;5068625;28;20047;-62
2022/07/07 04:33:24;;;;;;;9.43;2.13;;;15.50;99.90;;;;;;5067797;28;20482;-60
2022/07/07 04:35:49;;;;;;;10.80;2.35;;;15.40;99.90;;;;;;5068268;28;20053;-60
2022/07/07 04:38:15;;;;;;;10.50;2.30;;;15.40;99.90;;;;;;5068886;28;20048;-63
2022/07/07 04:40:41;;;;;;;8.30;2.25;;;15.40;99.90;;;;;;5067942;28;20429;-61
2022/07/07 04:43:07;;;;;;;6.50;1.67;;;15.40;99.90;;;;;;5066750;28;20401;-60
2022/07/07 04:45:33;;;;;;;12.93;2.30;;;15.40;99.90;;;;;;5069238;28;20416;-60
2022/07/07 04:47:59;;;;;;;6.57;1.83;;;15.40;99.90;;;;;;5069477;28;20036;-60
2022/07/07 04:50:25;;;;;;;8.73;2.10;;;15.40;99.90;;;;;;5067327;28;20040;-60
2022/07/07 04:52:52;;;;;;;6.53;2.03;;;15.50;99.90;;;;;;5069283;28;20044;-60
2022/07/07 04:55:18;;;;;;;9.98;2.05;;;15.50;99.90;;;;;;5067444;28;20485;-61
2022/07/07 04:57:44;;;;;;;8.95;1.98;;;15.50;99.90;;;;;;5051629;28;20052;-60
2022/07/07 05:00:10;;;;;;;12.60;2.63;;;15.60;99.90;;;;;;5067926;28;20486;-60
2022/07/07 05:02:36;;;;;;;8.95;2.40;;;15.60;99.90;;;;;;5064034;28;20232;-60
2022/07/07 05:05:02;;;;;;;7.80;2.47;;;15.70;99.90;;;;;;5067789;28;20494;-60
2022/07/07 05:07:27;;;;;;;8.52;2.15;;;15.80;99.90;;;;;;5064442;28;20037;-60
2022/07/07 05:09:53;;;;;;;10.98;2.78;;;15.80;99.90;;;;;;5062847;28;20472;-60
2022/07/07 05:12:19;;;;;;;12.52;2.90;;;15.80;99.90;;;;;;5084583;28;20066;-63
2022/07/07 05:14:44;;;;;;;13.52;2.42;;;15.90;99.90;;;;;;5072818;28;20125;-61
2022/07/07 05:17:10;;;;;;;11.93;2.50;;;15.80;99.90;;;;;;5071677;28;20072;-60
2022/07/07 05:19:36;;;;;;;15.30;2.92;;;15.80;99.90;;;;;;5071217;28;20504;-60
2022/07/07 05:22:02;;;;;;;9.93;2.60;;;15.80;99.90;;;;;;5068748;28;20457;-61
2022/07/07 05:24:27;;;;;;;10.48;2.70;;;15.80;99.90;;;;;;5072586;28;20048;-61
2022/07/07 05:26:53;;;;;;;10.48;2.53;;;15.80;99.90;;;;;;5069188;28;20068;-60
2022/07/07 05:29:19;;;;;;;9.52;2.60;;;15.80;99.90;;;;;;5073156;28;20403;-60
2022/07/07 05:31:44;;;;;;;14.93;2.80;;;15.80;99.90;;;;;;5071835;28;20048;-61
2022/07/07 05:34:10;;;;;;;9.45;2.40;;;15.70;99.90;;;;;;5051147;28;20124;-60
2022/07/07 05:36:36;;;;;;;12.00;3.05;;;15.70;99.90;;;;;;5067966;28;20475;-59
2022/07/07 05:39:01;;;;;;;9.52;2.22;;;15.70;99.90;;;;;;5054792;28;20127;-60
2022/07/07 05:41:27;;;;;;;11.15;2.60;;;15.70;99.90;;;;;;5071470;28;20178;-60
2022/07/07 05:43:53;;;;;;;9.98;2.40;;;15.70;99.90;;;;;;5072013;28;20068;-59
2022/07/07 05:46:19;;;;;;;13.48;3.08;;;15.70;99.90;;;;;;5069077;28;20043;-59
2022/07/07 05:48:44;;;;;;;10.32;2.47;;;15.70;99.90;;;;;;5057562;28;20218;-59
2022/07/07 05:51:10;;;;;;;8.63;2.13;;;15.80;99.90;;;;;;5065657;28;20056;-60
2022/07/07 05:53:38;;;;;;;11.60;2.67;;;15.90;99.90;;;;;;5061665;28;20538;-60
2022/07/07 05:56:04;;;;;;;10.10;2.58;;;15.90;99.90;;;;;;5062729;28;20044;-60
2022/07/07 05:58:30;;;;;;;11.18;2.38;;;15.90;99.90;;;;;;5064646;28;20049;-59
2022/07/07 06:00:56;;;;;;;12.43;3.03;;;15.90;99.90;;;;;;5058310;28;20053;-60
2022/07/07 06:03:21;;;;;;;11.45;2.10;;;15.90;99.90;;;;;;5062076;28;20040;-59
2022/07/07 06:05:47;;;;;;;12.30;2.47;;;15.90;99.90;;;;;;5061889;28;21390;-60
2022/07/07 06:08:13;;;;;;;11.23;2.30;;;15.90;99.90;;;;;;5072069;28;20044;-60
2022/07/07 06:10:39;;;;;;;9.10;2.35;;;16.00;99.90;;;;;;5067186;28;20041;-61
2022/07/07 06:13:05;;;;;;;10.55;2.35;;;16.00;99.90;;;;;;5065340;28;20461;-60
2022/07/07 06:15:33;;;;;;;8.82;2.30;;;16.70;99.90;;;;;;5064088;28;20046;-60
2022/07/07 06:18:00;;;;;;;9.07;2.20;;;17.90;99.90;;;;;;5057077;28;20041;-60
2022/07/07 06:20:26;;;;;;;7.57;2.10;;;18.50;99.90;;;;;;5066466;28;20048;-61
2022/07/07 06:22:52;;;;;;;8.60;2.08;;;18.60;99.90;;;;;;5041407;28;20052;-60
2022/07/07 06:25:18;;;;;;;8.73;2.13;;;18.50;99.90;;;;;;5066225;28;20044;-60
2022/07/07 06:27:44;;;;;;;6.03;1.90;;;18.40;99.90;;;;;;5065656;28;20045;-60
2022/07/07 06:30:11;;;;;;;8.27;1.63;;;18.50;99.90;;;;;;5062082;28;20410;-60
2022/07/07 06:32:36;;;;;;;5.38;1.75;;;18.30;99.90;;;;;;5069551;28;20090;-59
2022/07/07 06:35:02;;;;;;;8.23;2.30;;;18.10;99.90;;;;;;5071226;28;20071;-60
2022/07/07 06:37:28;;;;;;;8.98;2.13;;;17.80;99.90;;;;;;5071440;28;20036;-60
2022/07/07 06:39:54;;;;;;;6.82;2.10;;;17.50;99.90;;;;;;5064933;28;20110;-60
2022/07/07 06:42:20;;;;;;;8.75;2.08;;;17.30;99.90;;;;;;5070223;28;20048;-60
2022/07/07 06:44:46;;;;;;;10.13;1.90;;;17.20;99.90;;;;;;5065530;28;20119;-59
2022/07/07 06:47:11;;;;;;;9.57;2.20;;;17.10;99.90;;;;;;5060482;28;20106;-60
2022/07/07 06:49:37;;;;;;;7.45;1.88;;;17.20;99.90;;;;;;5064729;28;20044;-59
2022/07/07 06:52:03;;;;;;;6.05;1.60;;;17.40;99.90;;;;;;5054676;28;20048;-61
2022/07/07 06:54:29;;;;;;;3.90;1.33;;;17.50;99.90;;;;;;5066061;28;20056;-59
2022/07/07 06:56:54;;;;;;;4.05;1.00;;;17.30;99.90;;;;;;5057774;28;20056;-59
2022/07/07 06:59:21;;;;;;;6.35;1.67;;;17.40;99.90;;;;;;5066835;28;20119;-59
2022/07/07 07:01:46;;;;;;;4.32;1.50;;;17.70;99.90;;;;;;5061021;28;20834;-60
2022/07/07 07:04:13;;;;;;;8.45;1.80;;;18.30;99.90;;;;;;5052393;28;20118;-61
2022/07/07 07:06:43;;;;;;;6.57;1.70;;;18.60;99.90;;;;;;5062666;28;20044;-62
2022/07/07 07:09:09;;;;;;;5.15;1.60;;;18.40;99.90;;;;;;5064261;28;20044;-62
2022/07/07 07:11:36;;;;;;;7.10;1.67;;;18.00;99.90;;;;;;5070604;28;20049;-64
2022/07/07 07:14:02;;;;;;;5.65;1.40;;;17.60;99.90;;;;;;5070545;28;20076;-61
2022/07/07 07:16:28;;;;;;;7.03;1.58;;;17.40;99.90;;;;;;5066233;28;20045;-61
2022/07/07 07:18:55;;;;;;;4.15;0.88;;;17.30;99.90;;;;;;5053980;28;20037;-61
2022/07/07 07:21:20;;;;;;;5.15;1.15;;;17.40;99.90;;;;;;5062527;28;20064;-61
2022/07/07 07:23:46;;;;;;;2.13;0.90;;;17.50;99.90;;;;;;5063279;28;20032;-61
2022/07/07 07:26:12;;;;;;;4.18;0.90;;;18.00;99.90;;;;;;5060409;28;20045;-61
2022/07/07 07:28:37;;;;;;;2.60;0.75;;;19.10;99.90;;;;;;5065120;28;20060;-63
2022/07/07 07:31:04;;;;;;;3.58;1.17;;;19.70;99.90;;;;;;5061327;28;20091;-60
2022/07/07 07:33:31;;;;;;;6.10;1.00;;;20.00;99.90;;;;;;5063063;28;20401;-61
2022/07/07 07:35:57;;;;;;;7.60;1.50;;;19.70;99.90;;;;;;5061989;28;20045;-61
2022/07/07 07:38:23;;;;;;;7.50;1.50;;;19.30;99.90;;;;;;5058867;28;20056;-61
2022/07/07 07:40:49;;;;;;;5.13;1.35;;;18.90;99.90;;;;;;5063093;28;20221;-61
2022/07/07 07:43:15;;;;;;;5.63;1.27;;;18.50;99.90;;;;;;5063792;28;20107;-61
2022/07/07 07:45:40;;;;;;;4.15;1.00;;;18.10;99.90;;;;;;5061038;28;20045;-63
2022/07/07 07:48:06;;;;;;;3.33;0.90;;;17.80;99.90;;;;;;5059403;28;20051;-60
2022/07/07 07:50:32;;;;;;;7.25;1.55;;;18.20;99.90;;;;;;5066980;28;20495;-61
2022/07/07 07:53:02;;;;;;;2.40;0.98;;;19.10;99.90;;;;;;5066101;28;20052;-61
2022/07/07 07:55:28;;;;;;;6.15;1.38;;;20.00;99.90;;;;;;5065695;28;20464;-61
2022/07/07 07:57:53;;;;;;;8.07;1.45;;;21.00;99.90;;;;;;5058669;28;20048;-61
2022/07/07 08:00:22;;;;;;;3.40;1.05;;;21.40;99.90;;;;;;5056782;28;20040;-61
2022/07/07 08:02:48;;;;;;;4.70;1.50;;;21.30;99.90;;;;;;5066814;28;20051;-61
2022/07/07 08:05:16;;;;;;;5.53;1.33;;;20.60;99.90;;;;;;5065113;28;20125;-61
2022/07/07 08:07:42;;;;;;;5.22;1.42;;;20.00;99.90;;;;;;5059744;28;20360;-60
2022/07/07 08:10:10;;;;;;;3.60;1.40;;;19.80;99.90;;;;;;5056930;28;20044;-61
2022/07/07 08:12:36;;;;;;;8.18;1.60;;;20.00;99.90;;;;;;5061311;28;20060;-63
2022/07/07 08:15:02;;;;;;;4.72;1.38;;;20.70;99.90;;;;;;5055007;28;20048;-62
2022/07/07 08:17:28;;;;;;;5.93;1.70;;;21.50;99.90;;;;;;5037504;28;20041;-61
2022/07/07 08:19:54;;;;;;;7.13;2.05;;;21.70;99.90;;;;;;5065623;28;20059;-61
2022/07/07 08:22:20;;;;;;;5.00;1.60;;;21.20;99.90;;;;;;5057010;28;20084;-61
2022/07/07 08:24:46;;;;;;;8.27;1.98;;;20.60;99.90;;;;;;5062443;28;20075;-64
2022/07/07 08:27:11;;;;;;;5.75;2.08;;;20.20;99.90;;;;;;5071678;28;20072;-62
2022/07/07 08:29:38;;;;;;;6.80;1.80;;;19.90;99.90;;;;;;5061829;28;20045;-61
2022/07/07 08:32:12;;;;;;;8.32;1.90;;;19.70;99.90;;;;;;5059335;28;20114;-60
2022/07/07 08:34:39;;;;;;;7.22;1.80;;;19.50;99.90;;;;;;5062836;28;20049;-61
2022/07/07 08:37:05;;;;;;;9.18;2.10;;;19.50;99.90;;;;;;5065781;28;20044;-60
2022/07/07 08:39:31;;;;;;;12.10;2.50;;;19.40;99.90;;;;;;5058829;28;20044;-61
2022/07/07 08:41:58;;;;;;;6.32;1.83;;;19.30;99.90;;;;;;5061980;28;20063;-62
2022/07/07 08:44:24;;;;;;;8.93;1.80;;;19.40;99.90;;;;;;5066315;28;20147;-60
2022/07/07 08:46:50;;;;;;;8.20;2.65;;;19.40;99.90;;;;;;5068060;28;20478;-62
2022/07/07 08:49:16;;;;;;;6.90;2.28;;;19.50;99.90;;;;;;5067780;28;20110;-62
2022/07/07 08:51:43;;;;;;;10.60;2.55;;;20.00;99.90;;;;;;5063510;28;20048;-61
2022/07/07 08:54:11;;;;;;;9.45;2.75;;;20.00;99.90;;;;;;5061897;28;20130;-62
2022/07/07 08:56:38;;;;;;;8.85;2.10;;;19.90;99.90;;;;;;5046949;28;20063;-61
2022/07/07 08:59:09;;;;;;;8.52;2.90;;;19.70;99.90;;;;;;5060727;28;20477;-62
2022/07/07 09:01:35;;;;;;;7.68;1.98;;;19.40;99.90;;;;;;5057837;28;20039;-63
2022/07/07 09:04:02;;;;;;;9.13;1.90;;;19.30;99.90;;;;;;5056136;28;20470;-62
2022/07/07 09:06:29;;;;;;;5.28;1.88;;;19.20;99.90;;;;;;5059887;28;20098;-61
2022/07/07 09:08:55;;;;;;;3.75;1.50;;;19.00;99.90;;;;;;5057929;28;20040;-62
2022/07/07 09:11:39;;;;;;;3.00;1.20;;;18.90;99.90;;;;;;5061430;28;20047;-59
2022/07/07 09:14:14;;;;;;;5.70;1.70;;;19.30;99.90;;;;;;5034131;28;20088;-63
2022/07/07 09:16:41;;;;;;;5.18;1.70;;;20.20;99.90;;;;;;5059367;28;20056;-64
2022/07/07 09:19:20;;;;;;;4.60;1.27;;;20.30;99.90;;;;;;5063209;28;20070;-62
2022/07/07 09:21:46;;;;;;;11.20;2.00;;;20.00;99.90;;;;;;5063466;28;20474;-62
2022/07/07 09:24:12;;;;;;;9.10;1.92;;;19.70;99.90;;;;;;5059928;28;20036;-63
2022/07/07 09:26:47;;;;;;;7.20;1.95;;;19.70;99.90;;;;;;5049481;28;20044;-62
2022/07/07 09:29:20;;;;;;;7.78;1.70;;;19.70;99.90;;;;;;5055921;28;20041;-63
2022/07/07 09:32:01;;;;;;;6.20;1.87;;;19.70;99.90;;;;;;5061400;28;20037;-62
2022/07/07 09:34:29;;;;;;;7.22;2.20;;;19.60;99.90;;;;;;5045883;28;20049;-62
2022/07/07 09:39:42;;;;;;;6.88;1.80;;;19.20;99.90;;;;;;5066216;28;20564;-63
2022/07/07 09:42:28;;;;;;;8.82;1.85;;;18.90;99.90;;;;;;5055545;28;20041;-63
2022/07/07 09:45:01;;;;;;;6.20;1.73;;;18.60;99.90;;;;;;5068385;28;20044;-62
2022/07/07 09:47:28;;;;;;;7.10;1.95;;;18.50;99.90;;;;;;5065017;28;20494;-62
2022/07/07 09:50:10;;;;;;;6.03;1.20;;;18.50;99.90;;;;;;5052087;28;20088;-62
2022/07/07 09:52:38;;;;;;;4.75;0.98;;;18.50;99.90;;;;;;5058372;28;20393;-61
2022/07/07 09:55:08;;;;;;;3.63;1.20;;;18.50;99.90;;;;;;5059673;28;20583;-61
2022/07/07 09:57:34;;;;;;;6.95;1.63;;;18.60;99.90;;;;;;5055022;28;20060;-61
2022/07/07 10:00:00;;;;;;;14.15;2.05;;;18.80;99.90;;;;;;5057152;28;20109;-62
2022/07/07 10:02:29;;;;;;;8.05;1.38;;;18.90;99.90;;;;;;5069429;28;20044;-61
2022/07/07 10:04:57;;;;;;;7.60;1.75;;;18.90;99.90;;;;;;5071818;28;20040;-61
2022/07/07 10:07:25;;;;;;;8.10;1.73;;;18.80;99.90;;;;;;5068457;28;20098;-62
2022/07/07 10:09:56;;;;;;;8.60;2.17;;;18.70;99.90;;;;;;5069638;28;20046;-62
2022/07/07 10:12:28;;;;;;;7.32;2.03;;;18.70;99.90;;;;;;5056718;28;20103;-62
2022/07/07 10:15:01;;;;;;;7.20;2.15;;;18.80;99.90;;;;;;5060672;28;20101;-62
2022/07/07 10:17:29;;;;;;;10.38;2.33;;;19.10;99.90;;;;;;5057086;28;20051;-62
2022/07/07 10:19:56;;;;;;;8.50;1.98;;;19.20;99.90;;;;;;5062951;28;20093;-62
2022/07/07 10:22:27;;;;;;;11.93;2.63;;;19.20;99.90;;;;;;5056009;28;20473;-65
2022/07/07 10:24:54;;;;;;;13.50;2.78;;;19.10;99.90;;;;;;5063242;28;20036;-60
2022/07/07 10:27:25;;;;;;;15.27;3.60;;;18.80;99.90;;;;;;5064699;28;20040;-61
2022/07/07 10:29:53;;;;;;;12.07;2.88;;;18.50;99.90;;;;;;5063191;28;20124;-61
2022/07/07 10:32:38;;;;;;;11.10;2.53;;;18.50;99.90;;;;;;5067237;28;20203;-62
2022/07/07 10:35:14;;;;;;;12.68;2.63;;;18.60;99.90;;;;;;5061240;28;20123;-60
2022/07/07 10:37:47;;;;;;;8.40;2.30;;;18.50;99.90;;;;;;5067455;28;20074;-60
2022/07/07 10:40:33;;;;;;;15.63;3.00;;;18.50;99.90;;;;;;5062210;28;20398;-60
2022/07/07 10:43:17;;;;;;;16.83;3.47;;;18.40;99.90;;;;;;5062376;28;21202;-61
2022/07/07 10:45:46;;;;;;;;;;;18.30;99.90;;;;;;5067353;28;20114;-60
2022/07/07 10:48:41;;;;;;;10.45;2.35;;;18.10;99.90;;;;;;5067846;28;19920;-60
2022/07/07 10:51:26;;;;;;;16.58;3.42;;;18.20;99.90;;;;;;5058437;28;20064;-60
2022/07/07 10:54:00;;;;;;;9.32;2.63;;;18.10;99.90;;;;;;5066304;28;20049;-61
2022/07/07 10:56:27;;;;;;;13.40;2.78;;;18.20;99.90;;;;;;5064289;28;20056;-60
2022/07/07 10:58:55;;;;;;;8.82;2.42;;;18.30;99.90;;;;;;5060063;28;20522;-60
2022/07/07 11:01:23;;;;;;;10.05;2.20;;;18.40;99.90;;;;;;5057539;28;20051;-60
2022/07/07 11:03:49;;;;;;;10.77;2.80;;;18.50;99.90;;;;;;5051014;28;20049;-62
2022/07/07 11:06:14;;;;;;;7.95;3.00;;;18.50;99.90;;;;;;5060082;28;20051;-61
2022/07/07 11:08:40;;;;;;;11.50;2.60;;;18.40;99.90;;;;;;5046173;28;20037;-61
2022/07/07 11:11:07;;;;;;;18.08;3.60;;;18.30;99.90;;;;;;5055384;28;20052;-62
2022/07/07 11:13:42;;;;;;;10.95;2.70;;;18.30;99.90;;;;;;5057317;28;20049;-61
2022/07/07 11:16:15;;;;;;;11.32;3.20;;;18.30;99.90;;;;;;5054648;28;20103;-60
2022/07/07 11:18:43;;;;;;;12.57;3.15;;;18.30;99.90;;;;;;5062413;28;20041;-61
2022/07/07 11:21:09;;;;;;;11.20;2.90;;;18.30;99.90;;;;;;5057189;28;20372;-61
2022/07/07 11:23:48;;;;;;;13.43;2.92;;;18.40;99.90;;;;;;5053415;28;20041;-61
2022/07/07 11:26:20;;;;;;;10.43;2.80;;;18.40;99.90;;;;;;5053135;28;20037;-61
2022/07/07 11:28:46;;;;;;;11.23;2.50;;;18.40;99.90;;;;;;5063501;28;20142;-61
2022/07/07 11:31:13;;;;;;;9.50;2.33;;;18.40;99.90;;;;;;5060154;28;20086;-62
2022/07/07 11:33:39;;;;;;;10.57;2.38;;;18.50;99.90;;;;;;5060409;28;20040;-61
2022/07/07 11:36:09;;;;;;;11.75;2.30;;;18.60;99.90;;;;;;5061996;28;20048;-65
2022/07/07 11:38:35;;;;;;;6.85;2.20;;;18.60;99.90;;;;;;5049563;28;20067;-62
2022/07/07 11:41:01;;;;;;;9.07;1.90;;;18.70;99.90;;;;;;5063765;28;20052;-62
2022/07/07 11:43:27;;;;;;;12.93;2.17;;;18.70;99.90;;;;;;5062980;28;20064;-64
2022/07/07 11:45:52;;;;;;;6.18;1.65;;;18.70;99.90;;;;;;5056098;28;20132;-64
2022/07/07 11:48:18;;;;;;;9.27;2.15;;;18.80;99.90;;;;;;5051564;28;20093;-62
2022/07/07 11:50:45;;;;;;;6.47;1.83;;;18.90;99.90;;;;;;5060927;28;20053;-62
2022/07/07 11:53:11;;;;;;;8.60;2.60;;;19.00;99.90;;;;;;5057307;28;20086;-63
2022/07/07 11:55:37;;;;;;;7.63;1.80;;;19.00;99.90;;;;;;5059657;28;20052;-61
2022/07/07 11:58:04;;;;;;;10.43;2.65;;;19.00;99.90;;;;;;5066072;28;20068;-61
2022/07/07 12:00:32;;;;;;;13.65;2.80;;;19.10;99.90;;;;;;5061294;28;20049;-61
2022/07/07 12:03:01;;;;;;;8.55;2.47;;;19.10;99.90;;;;;;5067440;28;20041;-64
2022/07/07 12:05:32;;;;;;;11.55;2.78;;;19.00;99.90;;;;;;5068519;28;20063;-60
2022/07/07 12:08:06;;;;;;;10.63;2.92;;;18.90;99.90;;;;;;5066133;28;20127;-61
2022/07/07 12:10:52;;;;;;;11.68;2.72;;;18.80;99.90;;;;;;5062740;28;20110;-61
2022/07/07 12:13:19;;;;;;;11.95;2.88;;;18.90;99.90;;;;;;5068117;28;20073;-60
2022/07/07 12:15:48;;;;;;;15.65;3.47;;;18.90;99.90;;;;;;5057887;28;20049;-61
2022/07/07 12:18:23;;;;;;;13.60;3.67;;;18.90;99.90;;;;;;5062038;28;20044;-61
2022/07/07 12:21:00;;;;;;;13.68;2.90;;;18.90;99.90;;;;;;5060051;28;20488;-61
2022/07/07 12:23:26;;;;;;;12.70;2.78;;;19.00;99.90;;;;;;5054956;28;20131;-60
2022/07/07 12:25:52;;;;;;;7.65;2.20;;;18.90;99.90;;;;;;5062555;28;20143;-60
2022/07/07 12:28:18;;;;;;;6.85;2.10;;;19.10;99.90;;;;;;5059500;28;20410;-60
2022/07/07 12:30:55;;;;;;;8.90;2.47;;;19.20;99.90;;;;;;5068791;28;20044;-61
2022/07/07 12:33:33;;;;;;;14.43;3.00;;;19.20;99.90;;;;;;5068317;28;20045;-60
2022/07/07 12:36:07;;;;;;;9.98;2.90;;;19.10;99.90;;;;;;5057990;28;20052;-60
2022/07/07 12:38:34;;;;;;;;;;;19.10;99.90;;;;;;5055172;28;20036;-61
2022/07/07 12:41:00;;;;;;;12.07;2.97;;;19.00;99.90;;;;;;5063074;28;19929;-61
2022/07/07 12:43:34;;;;;;;11.70;2.55;;;18.90;99.90;;;;;;5062142;28;20051;-62
2022/07/07 12:46:09;;;;;;;;;;;18.80;99.90;;;;;;5065617;28;20041;-61